sensor_id;sensor_type;location;lat;lon;timestamp;pressure;altitude;pressure_sealevel;temperature;humidity
64711;BME280;51139;45.626;6.850;2023-02-19T00:04:00;82752.31;;;3.13;51.18
64711;BME280;51139;45.626;6.850;2023-02-19T00:06:28;82761.09;;;3.15;50.91
64711;BME280;51139;45.626;6.850;2023-02-19T00:08:54;82756.38;;;3.08;51.07
64711;BME280;51139;45.626;6.850;2023-02-19T00:11:22;82749.47;;;3.11;51.05
64711;BME280;51139;45.626;6.850;2023-02-19T00:13:50;82761.03;;;2.96;51.36
64711;BME280;51139;45.626;6.850;2023-02-19T00:18:43;82744.63;;;2.65;51.73
64711;BME280;51139;45.626;6.850;2023-02-19T00:21:08;82746.50;;;2.65;51.72
64711;BME280;51139;45.626;6.850;2023-02-19T00:23:34;82747.50;;;2.61;51.83
64711;BME280;51139;45.626;6.850;2023-02-19T00:26:04;82743.66;;;2.68;52.16
64711;BME280;51139;45.626;6.850;2023-02-19T00:28:30;82745.56;;;2.62;52.23
64711;BME280;51139;45.626;6.850;2023-02-19T00:31:03;82739.38;;;2.65;52.12
64711;BME280;51139;45.626;6.850;2023-02-19T00:33:28;82744.34;;;2.69;52.90
64711;BME280;51139;45.626;6.850;2023-02-19T00:35:53;82747.16;;;2.76;51.96
64711;BME280;51139;45.626;6.850;2023-02-19T00:38:19;82736.91;;;2.79;52.24
64711;BME280;51139;45.626;6.850;2023-02-19T00:40:44;82738.88;;;2.67;52.34
64711;BME280;51139;45.626;6.850;2023-02-19T00:43:10;82734.66;;;2.58;53.02
64711;BME280;51139;45.626;6.850;2023-02-19T00:45:35;82740.88;;;2.55;52.88
64711;BME280;51139;45.626;6.850;2023-02-19T00:48:00;82738.47;;;2.57;53.06
64711;BME280;51139;45.626;6.850;2023-02-19T00:50:26;82743.44;;;2.60;53.24
64711;BME280;51139;45.626;6.850;2023-02-19T00:52:51;82744.16;;;2.61;52.68
64711;BME280;51139;45.626;6.850;2023-02-19T00:55:17;82746.97;;;2.63;53.04
64711;BME280;51139;45.626;6.850;2023-02-19T00:57:42;82742.22;;;2.67;52.28
64711;BME280;51139;45.626;6.850;2023-02-19T01:00:08;82741.69;;;2.74;52.16
64711;BME280;51139;45.626;6.850;2023-02-19T01:02:34;82748.34;;;2.75;52.09
64711;BME280;51139;45.626;6.850;2023-02-19T01:04:59;82744.31;;;2.74;52.15
64711;BME280;51139;45.626;6.850;2023-02-19T01:07:25;82746.28;;;2.62;52.39
64711;BME280;51139;45.626;6.850;2023-02-19T01:09:50;82741.06;;;2.62;52.48
64711;BME280;51139;45.626;6.850;2023-02-19T01:12:16;82742.25;;;2.61;52.64
64711;BME280;51139;45.626;6.850;2023-02-19T01:14:41;82737.03;;;2.61;52.17
64711;BME280;51139;45.626;6.850;2023-02-19T01:17:06;82744.09;;;2.72;51.97
64711;BME280;51139;45.626;6.850;2023-02-19T01:19:32;82746.63;;;2.84;51.76
64711;BME280;51139;45.626;6.850;2023-02-19T01:21:57;82742.94;;;2.92;51.67
64711;BME280;51139;45.626;6.850;2023-02-19T01:24:23;82738.75;;;2.84;51.83
64711;BME280;51139;45.626;6.850;2023-02-19T01:26:48;82744.78;;;2.73;51.91
64711;BME280;51139;45.626;6.850;2023-02-19T01:29:13;82737.69;;;2.68;51.97
64711;BME280;51139;45.626;6.850;2023-02-19T01:31:39;82734.41;;;2.61;51.67
64711;BME280;51139;45.626;6.850;2023-02-19T01:34:08;82725.91;;;2.50;52.19
64711;BME280;51139;45.626;6.850;2023-02-19T01:36:33;82726.66;;;2.44;52.09
64711;BME280;51139;45.626;6.850;2023-02-19T01:39:00;82722.31;;;2.58;52.38
64711;BME280;51139;45.626;6.850;2023-02-19T01:41:28;82723.81;;;2.79;51.74
64711;BME280;51139;45.626;6.850;2023-02-19T01:44:07;82712.72;;;2.67;52.00
64711;BME280;51139;45.626;6.850;2023-02-19T01:46:43;82721.09;;;2.59;51.99
64711;BME280;51139;45.626;6.850;2023-02-19T01:51:44;82710.56;;;2.71;51.39
64711;BME280;51139;45.626;6.850;2023-02-19T01:54:12;82709.66;;;2.62;52.08
64711;BME280;51139;45.626;6.850;2023-02-19T01:56:41;82707.84;;;2.52;52.11
64711;BME280;51139;45.626;6.850;2023-02-19T01:59:08;82707.53;;;2.61;52.22
64711;BME280;51139;45.626;6.850;2023-02-19T02:01:36;82704.88;;;2.67;51.56
64711;BME280;51139;45.626;6.850;2023-02-19T02:04:02;82700.63;;;2.63;51.38
64711;BME280;51139;45.626;6.850;2023-02-19T02:06:33;82706.63;;;2.53;51.69
64711;BME280;51139;45.626;6.850;2023-02-19T02:09:00;82702.59;;;2.52;51.84
64711;BME280;51139;45.626;6.850;2023-02-19T02:11:50;82704.09;;;2.47;51.96
64711;BME280;51139;45.626;6.850;2023-02-19T02:14:24;82705.59;;;2.37;52.30
64711;BME280;51139;45.626;6.850;2023-02-19T02:22:47;82693.97;;;2.32;52.43
64711;BME280;51139;45.626;6.850;2023-02-19T02:28:11;82691.22;;;2.49;51.56
64711;BME280;51139;45.626;6.850;2023-02-19T02:30:43;82686.53;;;2.42;51.63
64711;BME280;51139;45.626;6.850;2023-02-19T02:33:31;82685.94;;;2.24;51.48
64711;BME280;51139;45.626;6.850;2023-02-19T02:36:06;82690.00;;;2.19;52.45
64711;BME280;51139;45.626;6.850;2023-02-19T02:38:36;82681.38;;;2.30;51.79
64711;BME280;51139;45.626;6.850;2023-02-19T02:41:03;82686.63;;;2.30;52.29
64711;BME280;51139;45.626;6.850;2023-02-19T02:43:29;82683.78;;;2.28;51.98
64711;BME280;51139;45.626;6.850;2023-02-19T02:45:54;82683.63;;;2.15;52.53
64711;BME280;51139;45.626;6.850;2023-02-19T02:51:24;82684.88;;;2.02;52.33
64711;BME280;51139;45.626;6.850;2023-02-19T02:54:02;82675.59;;;2.07;52.17
64711;BME280;51139;45.626;6.850;2023-02-19T02:56:49;82685.38;;;2.01;52.20
64711;BME280;51139;45.626;6.850;2023-02-19T02:59:18;82671.56;;;2.06;51.89
64711;BME280;51139;45.626;6.850;2023-02-19T03:02:02;82673.66;;;2.13;51.57
64711;BME280;51139;45.626;6.850;2023-02-19T03:07:33;82664.31;;;1.87;51.12
64711;BME280;51139;45.626;6.850;2023-02-19T03:10:02;82672.38;;;1.89;50.48
64711;BME280;51139;45.626;6.850;2023-02-19T03:12:29;82661.44;;;1.91;50.25
64711;BME280;51139;45.626;6.850;2023-02-19T03:15:15;82667.16;;;1.89;50.74
64711;BME280;51139;45.626;6.850;2023-02-19T03:18:02;82657.34;;;2.01;50.40
64711;BME280;51139;45.626;6.850;2023-02-19T03:20:52;82661.13;;;2.00;50.32
64711;BME280;51139;45.626;6.850;2023-02-19T03:23:21;82659.41;;;2.09;50.75
64711;BME280;51139;45.626;6.850;2023-02-19T03:26:11;82660.63;;;2.08;50.85
64711;BME280;51139;45.626;6.850;2023-02-19T03:28:38;82663.13;;;1.88;51.10
64711;BME280;51139;45.626;6.850;2023-02-19T03:31:26;82667.78;;;2.01;51.96
64711;BME280;51139;45.626;6.850;2023-02-19T03:33:56;82672.19;;;1.82;52.59
64711;BME280;51139;45.626;6.850;2023-02-19T03:36:30;82672.63;;;1.92;52.12
64711;BME280;51139;45.626;6.850;2023-02-19T03:39:02;82673.09;;;1.90;52.20
64711;BME280;51139;45.626;6.850;2023-02-19T03:41:35;82665.91;;;1.96;51.56
64711;BME280;51139;45.626;6.850;2023-02-19T03:44:12;82665.84;;;2.08;51.20
64711;BME280;51139;45.626;6.850;2023-02-19T03:46:45;82669.84;;;2.14;51.27
64711;BME280;51139;45.626;6.850;2023-02-19T03:54:51;82657.00;;;2.16;49.03
64711;BME280;51139;45.626;6.850;2023-02-19T03:57:20;82655.75;;;1.93;49.24
64711;BME280;51139;45.626;6.850;2023-02-19T03:59:52;82654.78;;;1.96;48.80
64711;BME280;51139;45.626;6.850;2023-02-19T04:02:31;82656.09;;;2.08;48.45
64711;BME280;51139;45.626;6.850;2023-02-19T04:05:02;82662.69;;;2.15;48.58
64711;BME280;51139;45.626;6.850;2023-02-19T04:07:32;82656.72;;;2.20;48.52
64711;BME280;51139;45.626;6.850;2023-02-19T04:10:00;82664.44;;;2.07;48.20
64711;BME280;51139;45.626;6.850;2023-02-19T04:12:27;82658.31;;;1.98;48.49
64711;BME280;51139;45.626;6.850;2023-02-19T04:14:58;82659.78;;;1.94;47.98
64711;BME280;51139;45.626;6.850;2023-02-19T04:17:28;82657.41;;;1.90;48.30
64711;BME280;51139;45.626;6.850;2023-02-19T04:19:58;82660.25;;;1.92;48.62
64711;BME280;51139;45.626;6.850;2023-02-19T04:22:25;82665.47;;;1.92;47.69
64711;BME280;51139;45.626;6.850;2023-02-19T04:24:52;82663.22;;;2.08;47.40
64711;BME280;51139;45.626;6.850;2023-02-19T04:27:19;82660.16;;;2.03;48.44
64711;BME280;51139;45.626;6.850;2023-02-19T04:29:45;82658.28;;;2.04;48.05
64711;BME280;51139;45.626;6.850;2023-02-19T04:32:11;82666.28;;;1.81;48.78
64711;BME280;51139;45.626;6.850;2023-02-19T04:34:37;82666.75;;;1.74;49.04
64711;BME280;51139;45.626;6.850;2023-02-19T04:37:03;82663.22;;;1.71;49.15
64711;BME280;51139;45.626;6.850;2023-02-19T04:39:28;82653.03;;;1.68;49.52
64711;BME280;51139;45.626;6.850;2023-02-19T04:41:53;82661.09;;;1.70;49.61
64711;BME280;51139;45.626;6.850;2023-02-19T04:44:19;82661.31;;;1.72;50.08
64711;BME280;51139;45.626;6.850;2023-02-19T04:46:44;82662.31;;;1.63;49.53
64711;BME280;51139;45.626;6.850;2023-02-19T04:49:10;82651.81;;;1.74;49.73
64711;BME280;51139;45.626;6.850;2023-02-19T04:51:35;82644.88;;;1.83;48.47
64711;BME280;51139;45.626;6.850;2023-02-19T04:54:01;82658.69;;;1.72;48.82
64711;BME280;51139;45.626;6.850;2023-02-19T04:56:26;82655.19;;;1.64;49.68
64711;BME280;51139;45.626;6.850;2023-02-19T04:58:51;82667.09;;;1.59;49.53
64711;BME280;51139;45.626;6.850;2023-02-19T05:01:17;82666.88;;;1.57;49.97
64711;BME280;51139;45.626;6.850;2023-02-19T05:03:42;82663.00;;;1.69;49.77
64711;BME280;51139;45.626;6.850;2023-02-19T05:06:10;82654.72;;;1.65;49.61
64711;BME280;51139;45.626;6.850;2023-02-19T05:08:36;82659.22;;;1.65;49.00
64711;BME280;51139;45.626;6.850;2023-02-19T05:11:04;82653.03;;;1.68;49.88
64711;BME280;51139;45.626;6.850;2023-02-19T05:13:30;82663.75;;;1.64;50.07
64711;BME280;51139;45.626;6.850;2023-02-19T05:16:00;82663.69;;;1.75;49.37
64711;BME280;51139;45.626;6.850;2023-02-19T05:18:26;82666.88;;;1.57;49.42
64711;BME280;51139;45.626;6.850;2023-02-19T05:20:52;82671.13;;;1.54;49.58
64711;BME280;51139;45.626;6.850;2023-02-19T05:23:18;82659.44;;;1.67;48.97
64711;BME280;51139;45.626;6.850;2023-02-19T05:25:45;82653.59;;;1.49;49.91
64711;BME280;51139;45.626;6.850;2023-02-19T05:28:10;82659.78;;;1.46;50.04
64711;BME280;51139;45.626;6.850;2023-02-19T05:30:50;82658.88;;;1.38;50.67
64711;BME280;51139;45.626;6.850;2023-02-19T05:33:19;82661.25;;;1.41;51.00
64711;BME280;51139;45.626;6.850;2023-02-19T05:35:47;82661.50;;;1.38;50.94
64711;BME280;51139;45.626;6.850;2023-02-19T05:38:13;82651.06;;;1.80;49.93
64711;BME280;51139;45.626;6.850;2023-02-19T05:40:39;82658.09;;;1.54;50.65
64711;BME280;51139;45.626;6.850;2023-02-19T05:43:06;82657.84;;;1.58;49.93
64711;BME280;51139;45.626;6.850;2023-02-19T05:45:32;82662.84;;;1.50;50.01
64711;BME280;51139;45.626;6.850;2023-02-19T05:47:58;82657.09;;;1.63;49.50
64711;BME280;51139;45.626;6.850;2023-02-19T05:50:23;82656.13;;;1.66;49.79
64711;BME280;51139;45.626;6.850;2023-02-19T05:52:49;82654.88;;;1.73;50.05
64711;BME280;51139;45.626;6.850;2023-02-19T05:55:14;82646.00;;;1.51;50.02
64711;BME280;51139;45.626;6.850;2023-02-19T05:57:41;82652.91;;;1.49;49.93
64711;BME280;51139;45.626;6.850;2023-02-19T06:00:09;82656.25;;;1.43;49.89
64711;BME280;51139;45.626;6.850;2023-02-19T06:02:36;82655.22;;;1.58;49.93
64711;BME280;51139;45.626;6.850;2023-02-19T06:05:02;82659.56;;;1.44;50.38
64711;BME280;51139;45.626;6.850;2023-02-19T06:07:27;82645.28;;;1.51;50.16
64711;BME280;51139;45.626;6.850;2023-02-19T06:09:53;82640.41;;;1.72;49.75
64711;BME280;51139;45.626;6.850;2023-02-19T06:12:18;82645.94;;;1.63;50.18
64711;BME280;51139;45.626;6.850;2023-02-19T06:14:43;82651.00;;;1.49;50.77
64711;BME280;51139;45.626;6.850;2023-02-19T06:17:09;82645.09;;;1.43;51.03
64711;BME280;51139;45.626;6.850;2023-02-19T06:19:34;82653.94;;;1.34;50.46
64711;BME280;51139;45.626;6.850;2023-02-19T06:22:00;82657.47;;;1.37;50.39
64711;BME280;51139;45.626;6.850;2023-02-19T06:24:25;82650.06;;;1.47;50.34
64711;BME280;51139;45.626;6.850;2023-02-19T06:26:50;82651.25;;;1.45;50.56
64711;BME280;51139;45.626;6.850;2023-02-19T06:29:16;82651.19;;;1.57;49.92
64711;BME280;51139;45.626;6.850;2023-02-19T06:31:41;82647.84;;;1.62;49.45
64711;BME280;51139;45.626;6.850;2023-02-19T06:34:07;82645.22;;;1.62;49.48
64711;BME280;51139;45.626;6.850;2023-02-19T06:36:32;82654.31;;;1.50;50.48
64711;BME280;51139;45.626;6.850;2023-02-19T06:38:59;82651.94;;;1.52;50.04
64711;BME280;51139;45.626;6.850;2023-02-19T06:41:24;82652.63;;;1.58;50.41
64711;BME280;51139;45.626;6.850;2023-02-19T06:43:49;82656.88;;;1.61;49.62
64711;BME280;51139;45.626;6.850;2023-02-19T06:46:15;82665.50;;;1.44;50.13
64711;BME280;51139;45.626;6.850;2023-02-19T06:48:42;82659.16;;;1.34;50.39
64711;BME280;51139;45.626;6.850;2023-02-19T06:51:12;82662.16;;;1.50;50.55
64711;BME280;51139;45.626;6.850;2023-02-19T06:53:39;82652.16;;;1.54;49.71
64711;BME280;51139;45.626;6.850;2023-02-19T06:56:06;82654.97;;;1.62;49.80
64711;BME280;51139;45.626;6.850;2023-02-19T06:58:33;82650.69;;;1.64;49.50
64711;BME280;51139;45.626;6.850;2023-02-19T07:00:59;82657.50;;;1.73;48.61
64711;BME280;51139;45.626;6.850;2023-02-19T07:03:24;82665.91;;;1.60;49.45
64711;BME280;51139;45.626;6.850;2023-02-19T07:05:50;82659.78;;;1.46;49.98
64711;BME280;51139;45.626;6.850;2023-02-19T07:08:16;82665.47;;;1.50;50.00
64711;BME280;51139;45.626;6.850;2023-02-19T07:10:44;82660.47;;;1.52;49.99
64711;BME280;51139;45.626;6.850;2023-02-19T07:13:10;82660.56;;;1.35;50.98
64711;BME280;51139;45.626;6.850;2023-02-19T07:15:35;82665.50;;;1.44;50.08
64711;BME280;51139;45.626;6.850;2023-02-19T07:18:01;82678.56;;;1.44;50.18
64711;BME280;51139;45.626;6.850;2023-02-19T07:20:26;82675.44;;;1.52;50.65
64711;BME280;51139;45.626;6.850;2023-02-19T07:22:52;82682.50;;;1.63;50.11
64711;BME280;51139;45.626;6.850;2023-02-19T07:25:17;82673.22;;;1.67;48.97
64711;BME280;51139;45.626;6.850;2023-02-19T07:27:42;82681.28;;;1.69;49.47
64711;BME280;51139;45.626;6.850;2023-02-19T07:30:08;82691.28;;;1.65;49.78
64711;BME280;51139;45.626;6.850;2023-02-19T07:32:34;82677.19;;;1.80;48.91
64711;BME280;51139;45.626;6.850;2023-02-19T07:34:59;82684.06;;;1.83;49.58
64711;BME280;51139;45.626;6.850;2023-02-19T07:37:25;82676.56;;;2.04;49.07
64711;BME280;51139;45.626;6.850;2023-02-19T07:39:50;82682.72;;;2.43;48.46
64711;BME280;51139;45.626;6.850;2023-02-19T07:42:15;82684.75;;;3.11;47.65
64711;BME280;51139;45.626;6.850;2023-02-19T07:44:41;82683.09;;;3.52;46.71
64711;BME280;51139;45.626;6.850;2023-02-19T07:47:06;82680.44;;;3.96;45.52
64711;BME280;51139;45.626;6.850;2023-02-19T07:49:32;82677.44;;;4.44;43.90
64711;BME280;51139;45.626;6.850;2023-02-19T07:51:58;82677.59;;;4.65;43.86
64711;BME280;51139;45.626;6.850;2023-02-19T07:54:23;82673.13;;;4.92;44.07
64711;BME280;51139;45.626;6.850;2023-02-19T07:56:48;82678.13;;;5.36;43.14
64711;BME280;51139;45.626;6.850;2023-02-19T07:59:14;82684.31;;;6.41;39.77
64711;BME280;51139;45.626;6.850;2023-02-19T08:01:40;82677.09;;;6.97;37.26
64711;BME280;51139;45.626;6.850;2023-02-19T08:04:24;82673.06;;;7.76;35.54
64711;BME280;51139;45.626;6.850;2023-02-19T08:06:51;82678.06;;;7.58;35.30
64711;BME280;51139;45.626;6.850;2023-02-19T08:09:17;82681.19;;;7.27;35.95
64711;BME280;51139;45.626;6.850;2023-02-19T08:11:42;82686.34;;;6.69;34.20
64711;BME280;51139;45.626;6.850;2023-02-19T08:14:26;82677.34;;;7.28;34.99
64711;BME280;51139;45.626;6.850;2023-02-19T08:16:52;82681.34;;;7.80;33.76
64711;BME280;51139;45.626;6.850;2023-02-19T08:19:18;82677.25;;;8.00;34.03
64711;BME280;51139;45.626;6.850;2023-02-19T08:21:44;82679.19;;;8.44;33.56
64711;BME280;51139;45.626;6.850;2023-02-19T08:24:09;82678.09;;;8.31;33.15
64711;BME280;51139;45.626;6.850;2023-02-19T08:26:35;82680.06;;;7.44;35.20
64711;BME280;51139;45.626;6.850;2023-02-19T08:29:02;82679.19;;;8.44;30.93
64711;BME280;51139;45.626;6.850;2023-02-19T08:31:27;82678.94;;;8.71;32.27
64711;BME280;51139;45.626;6.850;2023-02-19T08:33:53;82670.75;;;8.45;33.34
64711;BME280;51139;45.626;6.850;2023-02-19T08:36:18;82675.56;;;8.63;33.01
64711;BME280;51139;45.626;6.850;2023-02-19T08:38:44;82673.22;;;9.11;31.41
64711;BME280;51139;45.626;6.850;2023-02-19T08:41:11;82674.44;;;9.96;30.84
64711;BME280;51139;45.626;6.850;2023-02-19T08:43:37;82692.63;;;9.76;31.18
64711;BME280;51139;45.626;6.850;2023-02-19T08:46:03;82675.88;;;9.27;31.45
64711;BME280;51139;45.626;6.850;2023-02-19T08:48:28;82688.97;;;8.65;32.22
64711;BME280;51139;45.626;6.850;2023-02-19T08:50:55;82683.78;;;9.19;32.83
64711;BME280;51139;45.626;6.850;2023-02-19T08:53:22;82693.84;;;9.36;32.71
64711;BME280;51139;45.626;6.850;2023-02-19T08:55:48;82690.69;;;9.30;34.15
64711;BME280;51139;45.626;6.850;2023-02-19T08:58:14;82690.34;;;9.49;33.83
64711;BME280;51139;45.626;6.850;2023-02-19T09:00:39;82696.84;;;9.09;33.59
64711;BME280;51139;45.626;6.850;2023-02-19T09:03:05;82693.44;;;8.93;34.60
64711;BME280;51139;45.626;6.850;2023-02-19T09:05:30;82693.66;;;9.18;34.52
64711;BME280;51139;45.626;6.850;2023-02-19T09:07:56;82690.69;;;9.38;32.39
64711;BME280;51139;45.626;6.850;2023-02-19T09:10:21;82698.44;;;10.05;33.60
64711;BME280;51139;45.626;6.850;2023-02-19T09:12:47;82697.19;;;10.06;34.21
64711;BME280;51139;45.626;6.850;2023-02-19T09:15:12;82680.97;;;9.95;33.86
64711;BME280;51139;45.626;6.850;2023-02-19T09:17:38;82690.78;;;10.41;32.24
64711;BME280;51139;45.626;6.850;2023-02-19T09:20:03;82695.06;;;10.13;34.89
64711;BME280;51139;45.626;6.850;2023-02-19T09:22:29;82694.78;;;10.57;34.19
64711;BME280;51139;45.626;6.850;2023-02-19T09:24:54;82694.09;;;10.49;34.01
64711;BME280;51139;45.626;6.850;2023-02-19T09:27:20;82693.78;;;10.93;31.97
64711;BME280;51139;45.626;6.850;2023-02-19T09:29:45;82699.56;;;10.67;34.71
64711;BME280;51139;45.626;6.850;2023-02-19T09:32:12;82689.00;;;10.92;33.20
64711;BME280;51139;45.626;6.850;2023-02-19T09:34:37;82701.31;;;10.64;33.72
64711;BME280;51139;45.626;6.850;2023-02-19T09:37:06;82699.38;;;11.05;31.67
64711;BME280;51139;45.626;6.850;2023-02-19T09:39:32;82694.25;;;11.07;31.70
64711;BME280;51139;45.626;6.850;2023-02-19T09:42:03;82693.50;;;11.15;29.97
64711;BME280;51139;45.626;6.850;2023-02-19T09:44:38;82698.91;;;11.83;33.04
64711;BME280;51139;45.626;6.850;2023-02-19T09:47:17;82700.44;;;10.61;30.71
64711;BME280;51139;45.626;6.850;2023-02-19T09:49:45;82694.81;;;10.98;29.81
64711;BME280;51139;45.626;6.850;2023-02-19T09:54:57;82706.59;;;10.64;32.00
64711;BME280;51139;45.626;6.850;2023-02-19T09:57:25;82709.72;;;11.52;29.24
64711;BME280;51139;45.626;6.850;2023-02-19T10:00:04;82716.31;;;10.69;31.73
64711;BME280;51139;45.626;6.850;2023-02-19T10:02:29;82718.59;;;10.73;32.93
64711;BME280;51139;45.626;6.850;2023-02-19T10:04:56;82709.94;;;11.46;30.67
64711;BME280;51139;45.626;6.850;2023-02-19T10:07:24;82705.06;;;10.94;31.46
64711;BME280;51139;45.626;6.850;2023-02-19T10:12:24;82713.19;;;10.47;31.63
64711;BME280;51139;45.626;6.850;2023-02-19T10:14:51;82708.94;;;8.89;30.68
64711;BME280;51139;45.626;6.850;2023-02-19T10:17:24;82703.38;;;9.70;32.44
64711;BME280;51139;45.626;6.850;2023-02-19T10:19:51;82701.94;;;10.08;33.41
64711;BME280;51139;45.626;6.850;2023-02-19T10:22:17;82699.44;;;10.33;30.23
64711;BME280;51139;45.626;6.850;2023-02-19T10:24:44;82704.59;;;10.00;32.23
64711;BME280;51139;45.626;6.850;2023-02-19T10:27:13;82698.56;;;10.15;30.10
64711;BME280;51139;45.626;6.850;2023-02-19T10:29:41;82692.34;;;10.44;30.74
64711;BME280;51139;45.626;6.850;2023-02-19T10:34:37;82695.50;;;10.58;32.07
64711;BME280;51139;45.626;6.850;2023-02-19T10:37:02;82696.13;;;10.82;31.70
64711;BME280;51139;45.626;6.850;2023-02-19T10:39:48;82688.47;;;10.37;29.71
64711;BME280;51139;45.626;6.850;2023-02-19T10:42:23;82691.53;;;10.18;29.83
64711;BME280;51139;45.626;6.850;2023-02-19T10:44:55;82687.31;;;10.71;30.31
64711;BME280;51139;45.626;6.850;2023-02-19T10:47:24;82687.50;;;9.08;30.97
64711;BME280;51139;45.626;6.850;2023-02-19T10:49:52;82693.31;;;10.00;29.96
64711;BME280;51139;45.626;6.850;2023-02-19T10:52:23;82687.91;;;10.54;29.81
64711;BME280;51139;45.626;6.850;2023-02-19T10:54:57;82688.16;;;10.82;31.23
64711;BME280;51139;45.626;6.850;2023-02-19T10:57:37;82690.78;;;10.48;34.26
64711;BME280;51139;45.626;6.850;2023-02-19T11:03:18;82691.47;;;10.33;30.82
64711;BME280;51139;45.626;6.850;2023-02-19T11:05:59;82687.06;;;10.36;33.33
64711;BME280;51139;45.626;6.850;2023-02-19T11:08:25;82689.72;;;10.36;33.74
64711;BME280;51139;45.626;6.850;2023-02-19T11:10:51;82692.91;;;10.42;30.83
64711;BME280;51139;45.626;6.850;2023-02-19T11:13:27;82683.84;;;10.53;31.92
64711;BME280;51139;45.626;6.850;2023-02-19T11:15:55;82689.16;;;10.53;32.72
64711;BME280;51139;45.626;6.850;2023-02-19T11:18:26;82686.34;;;10.51;31.99
64711;BME280;51139;45.626;6.850;2023-02-19T11:20:58;82682.94;;;10.58;31.83
64711;BME280;51139;45.626;6.850;2023-02-19T11:23:31;82693.75;;;10.53;35.86
64711;BME280;51139;45.626;6.850;2023-02-19T11:26:00;82691.94;;;10.63;31.36
64711;BME280;51139;45.626;6.850;2023-02-19T11:31:18;82687.22;;;10.54;31.67
64711;BME280;51139;45.626;6.850;2023-02-19T11:34:00;82673.06;;;10.67;32.48
64711;BME280;51139;45.626;6.850;2023-02-19T11:36:33;82674.25;;;10.73;34.74
64711;BME280;51139;45.626;6.850;2023-02-19T11:39:25;82671.31;;;10.54;33.71
64711;BME280;51139;45.626;6.850;2023-02-19T11:50:47;82670.25;;;10.98;31.17
64711;BME280;51139;45.626;6.850;2023-02-19T11:53:30;82669.94;;;10.93;32.90
64711;BME280;51139;45.626;6.850;2023-02-19T11:56:15;82669.84;;;11.09;34.02
64711;BME280;51139;45.626;6.850;2023-02-19T11:58:56;82669.22;;;10.93;30.77
64711;BME280;51139;45.626;6.850;2023-02-19T12:01:34;82660.88;;;11.30;32.18
64711;BME280;51139;45.626;6.850;2023-02-19T12:07:41;82658.94;;;10.97;31.91
64711;BME280;51139;45.626;6.850;2023-02-19T12:11:07;82655.03;;;10.98;36.34
64711;BME280;51139;45.626;6.850;2023-02-19T12:18:57;82639.69;;;11.55;31.32
64711;BME280;51139;45.626;6.850;2023-02-19T12:24:15;82636.34;;;11.55;31.69
64711;BME280;51139;45.626;6.850;2023-02-19T12:27:03;82641.81;;;11.23;32.47
64711;BME280;51139;45.626;6.850;2023-02-19T12:34:36;82640.06;;;10.93;35.44
64711;BME280;51139;45.626;6.850;2023-02-19T12:45:38;82631.94;;;10.91;31.83
64711;BME280;51139;45.626;6.850;2023-02-19T12:50:38;82622.00;;;10.99;35.26
64711;BME280;51139;45.626;6.850;2023-02-19T12:53:11;82620.72;;;11.08;32.00
64711;BME280;51139;45.626;6.850;2023-02-19T12:55:42;82613.81;;;11.13;33.43
64711;BME280;51139;45.626;6.850;2023-02-19T12:58:23;82614.16;;;11.09;35.59
64711;BME280;51139;45.626;6.850;2023-02-19T13:00:56;82615.63;;;10.69;34.01
64711;BME280;51139;45.626;6.850;2023-02-19T13:03:38;82617.78;;;10.96;36.46
64711;BME280;51139;45.626;6.850;2023-02-19T13:06:15;82625.97;;;10.83;32.51
64711;BME280;51139;45.626;6.850;2023-02-19T13:09:17;82622.22;;;10.93;33.50
64711;BME280;51139;45.626;6.850;2023-02-19T13:11:55;82627.97;;;11.07;31.76
64711;BME280;51139;45.626;6.850;2023-02-19T13:14:41;82619.09;;;10.79;31.51
64711;BME280;51139;45.626;6.850;2023-02-19T13:17:22;82620.53;;;10.32;31.75
64711;BME280;51139;45.626;6.850;2023-02-19T13:19:55;82618.19;;;10.85;33.08
64711;BME280;51139;45.626;6.850;2023-02-19T13:25:05;82617.03;;;10.70;33.29
64711;BME280;51139;45.626;6.850;2023-02-19T13:30:47;82610.81;;;10.75;32.15
64711;BME280;51139;45.626;6.850;2023-02-19T13:38:09;82622.25;;;10.53;30.83
64711;BME280;51139;45.626;6.850;2023-02-19T13:40:38;82614.94;;;10.69;31.75
64711;BME280;51139;45.626;6.850;2023-02-19T13:43:23;82613.81;;;10.79;32.05
64711;BME280;51139;45.626;6.850;2023-02-19T13:45:55;82611.66;;;10.53;31.37
64711;BME280;51139;45.626;6.850;2023-02-19T13:50:48;82616.47;;;11.13;33.02
64711;BME280;51139;45.626;6.850;2023-02-19T13:59:20;82619.75;;;10.62;32.74
64711;BME280;51139;45.626;6.850;2023-02-19T14:09:47;82618.84;;;10.60;31.42
64711;BME280;51139;45.626;6.850;2023-02-19T14:25:48;82602.50;;;9.82;32.72
64711;BME280;51139;45.626;6.850;2023-02-19T14:28:35;82595.31;;;10.23;32.67
64711;BME280;51139;45.626;6.850;2023-02-19T14:33:43;82593.50;;;10.33;32.33
64711;BME280;51139;45.626;6.850;2023-02-19T14:36:52;82600.81;;;10.17;31.47
64711;BME280;51139;45.626;6.850;2023-02-19T14:39:21;82594.19;;;10.49;32.10
64711;BME280;51139;45.626;6.850;2023-02-19T14:41:51;82590.13;;;10.48;32.14
64711;BME280;51139;45.626;6.850;2023-02-19T14:44:24;82581.94;;;10.13;31.83
64711;BME280;51139;45.626;6.850;2023-02-19T14:52:04;82594.41;;;10.36;31.04
64711;BME280;51139;45.626;6.850;2023-02-19T14:54:38;82598.53;;;10.14;31.77
64711;BME280;51139;45.626;6.850;2023-02-19T14:57:10;82586.66;;;9.66;32.31
64711;BME280;51139;45.626;6.850;2023-02-19T14:59:36;82593.19;;;9.49;32.04
64711;BME280;51139;45.626;6.850;2023-02-19T15:02:14;82597.69;;;9.96;32.04
64711;BME280;51139;45.626;6.850;2023-02-19T15:04:45;82608.22;;;10.19;32.42
64711;BME280;51139;45.626;6.850;2023-02-19T15:07:31;82605.25;;;10.07;34.92
64711;BME280;51139;45.626;6.850;2023-02-19T15:10:00;82605.66;;;9.80;33.15
64711;BME280;51139;45.626;6.850;2023-02-19T15:12:51;82596.41;;;10.12;33.22
64711;BME280;51139;45.626;6.850;2023-02-19T15:15:21;82586.81;;;9.68;33.16
64711;BME280;51139;45.626;6.850;2023-02-19T15:17:49;82581.34;;;9.82;33.71
64711;BME280;51139;45.626;6.850;2023-02-19T15:20:18;82589.44;;;9.84;32.91
64711;BME280;51139;45.626;6.850;2023-02-19T15:22:43;82590.22;;;10.17;33.40
64711;BME280;51139;45.626;6.850;2023-02-19T15:25:21;82588.19;;;9.92;35.81
64711;BME280;51139;45.626;6.850;2023-02-19T15:27:47;82592.38;;;10.03;32.84